Time;durP1;ratioP1;P1;durP2;ratioP2;P2;SDS_P1;SDS_P2;PMS_P1;PMS_P2;Temp;Humidity;BMP_temperature;BMP_pressure;BME280_temperature;BME280_humidity;BME280_pressure;Samples;Min_cycle;Max_cycle;Signal;HPM_P1;HPM_P2
2022/06/13 00:01:01;;;;;;;1.40;1.30;;;21.10;47.40;;;;;;4984254;28;20450;-57
2022/06/13 00:03:26;;;;;;;1.23;1.13;;;21.10;47.40;;;;;;4995378;28;20236;-58
2022/06/13 00:05:52;;;;;;;1.50;1.40;;;21.10;47.30;;;;;;4985864;28;20307;-57
2022/06/13 00:08:17;;;;;;;1.40;1.30;;;21.10;47.30;;;;;;4985171;28;20216;-57
2022/06/13 00:10:43;;;;;;;1.50;1.40;;;21.10;47.30;;;;;;4996344;28;20344;-58
2022/06/13 00:13:09;;;;;;;1.23;1.13;;;21.10;47.30;;;;;;4986584;28;20274;-57
2022/06/13 00:15:35;;;;;;;1.40;1.30;;;21.10;47.40;;;;;;4981914;28;20308;-57
2022/06/13 00:18:00;;;;;;;1.30;1.20;;;21.10;47.30;;;;;;4986129;28;20256;-58
2022/06/13 00:20:26;;;;;;;1.50;1.40;;;21.20;47.40;;;;;;4981638;28;20224;-58
2022/06/13 00:22:51;;;;;;;1.23;1.13;;;21.10;47.30;;;;;;4981876;28;20227;-58
2022/06/13 00:25:17;;;;;;;1.40;1.30;;;21.10;47.30;;;;;;4984803;28;20255;-57
2022/06/13 00:27:43;;;;;;;1.30;1.20;;;21.10;47.30;;;;;;4999653;28;20241;-58
2022/06/13 00:30:10;;;;;;;1.20;1.10;;;21.10;47.30;;;;;;4982251;28;20216;-57
2022/06/13 00:32:36;;;;;;;1.40;1.20;;;21.10;47.30;;;;;;4979912;28;20225;-58
2022/06/13 00:35:02;;;;;;;1.30;1.20;;;21.10;47.30;;;;;;4982238;28;20454;-57
2022/06/13 00:37:29;;;;;;;1.60;1.50;;;21.10;47.30;;;;;;5000281;28;20425;-58
2022/06/13 00:39:54;;;;;;;1.40;1.30;;;21.10;47.30;;;;;;4983289;28;20442;-58
2022/06/13 00:42:23;;;;;;;1.30;1.20;;;21.10;47.30;;;;;;4982394;28;20458;-58
2022/06/13 00:45:10;;;;;;;1.43;1.33;;;21.10;47.30;;;;;;4982755;28;20247;-58
2022/06/13 00:47:38;;;;;;;1.50;1.40;;;21.10;47.20;;;;;;4981626;28;20413;-58
2022/06/13 00:50:07;;;;;;;1.50;1.40;;;21.10;47.20;;;;;;4979646;28;20455;-57
2022/06/13 00:52:45;;;;;;;1.40;1.30;;;21.10;47.20;;;;;;4983127;28;20450;-58
2022/06/13 00:55:14;;;;;;;1.30;1.20;;;21.10;47.20;;;;;;4981726;28;20442;-58
2022/06/13 00:57:41;;;;;;;1.60;1.50;;;21.10;47.20;;;;;;4978939;28;20955;-58
2022/06/13 01:00:11;;;;;;;1.50;1.40;;;21.10;47.20;;;;;;4981085;28;20517;-57
2022/06/13 01:02:41;;;;;;;1.37;1.27;;;21.10;47.20;;;;;;4980242;28;20451;-58
2022/06/13 01:05:08;;;;;;;1.50;1.40;;;21.10;47.10;;;;;;4983505;28;20951;-58
2022/06/13 01:07:36;;;;;;;1.40;1.30;;;21.10;47.20;;;;;;4982761;28;20451;-57
2022/06/13 01:12:48;;;;;;;1.50;1.40;;;21.10;47.10;;;;;;4980579;28;20538;-57
2022/06/13 01:15:55;;;;;;;1.43;1.33;;;21.10;47.10;;;;;;4980685;28;20537;-58
2022/06/13 01:18:42;;;;;;;1.40;1.30;;;21.10;47.10;;;;;;4996415;28;20918;-59
2022/06/13 01:21:28;;;;;;;1.40;1.30;;;21.10;47.10;;;;;;4979422;28;20884;-58
2022/06/13 01:24:21;;;;;;;1.37;1.27;;;21.10;47.10;;;;;;4982785;28;20896;-58
2022/06/13 01:27:36;;;;;;;1.57;1.47;;;21.10;47.10;;;;;;4979584;28;20475;-58
2022/06/13 01:30:26;;;;;;;1.60;1.50;;;21.10;47.10;;;;;;4981023;28;20467;-59
2022/06/13 01:33:23;;;;;;;1.47;1.37;;;21.10;47.10;;;;;;4980165;28;20462;-57
2022/06/13 01:36:04;;;;;;;1.40;1.30;;;21.10;47.00;;;;;;4980791;28;20476;-59
2022/06/13 01:39:07;;;;;;;1.50;1.40;;;21.10;47.00;;;;;;4983922;28;20482;-59
2022/06/13 01:41:41;;;;;;;1.50;1.40;;;21.10;47.00;;;;;;4981078;28;20447;-59
2022/06/13 01:44:17;;;;;;;1.50;1.40;;;21.10;47.00;;;;;;4976997;28;20437;-56
2022/06/13 01:46:58;;;;;;;1.50;1.40;;;21.10;47.00;;;;;;4980477;28;20512;-56
2022/06/13 01:49:28;;;;;;;1.60;1.50;;;21.10;47.00;;;;;;4979903;28;20465;-57
2022/06/13 01:52:27;;;;;;;1.40;1.30;;;21.10;47.00;;;;;;4985089;28;20504;-56
2022/06/13 01:55:11;;;;;;;1.50;1.40;;;21.10;46.90;;;;;;4981322;28;20499;-56
2022/06/13 01:57:52;;;;;;;1.60;1.50;;;21.10;47.00;;;;;;4980451;28;20446;-56
2022/06/13 02:00:25;;;;;;;1.47;1.37;;;21.10;47.00;;;;;;4981120;28;20466;-56
2022/06/13 02:03:14;;;;;;;1.50;1.40;;;21.10;46.90;;;;;;4979142;28;20446;-56
2022/06/13 02:06:08;;;;;;;1.57;1.47;;;21.10;47.00;;;;;;4983607;28;20429;-56
2022/06/13 02:08:41;;;;;;;1.30;1.20;;;21.10;46.90;;;;;;4980401;28;20454;-56
2022/06/13 02:11:13;;;;;;;1.80;1.70;;;21.10;46.90;;;;;;4979853;28;20450;-56
2022/06/13 02:14:01;;;;;;;1.60;1.50;;;21.10;46.90;;;;;;4980044;28;20479;-56
2022/06/13 02:16:36;;;;;;;1.50;1.40;;;21.10;46.90;;;;;;4978564;28;20484;-56
2022/06/13 02:19:31;;;;;;;1.50;1.40;;;21.10;47.00;;;;;;4980572;28;20450;-56
2022/06/13 02:21:59;;;;;;;1.40;1.30;;;21.10;47.00;;;;;;4979121;28;20482;-57
2022/06/13 02:24:33;;;;;;;1.60;1.50;;;21.10;46.90;;;;;;4993153;28;20481;-56
2022/06/13 02:27:01;;;;;;;1.40;1.30;;;21.10;46.90;;;;;;4993940;28;20557;-56
2022/06/13 02:29:34;;;;;;;1.73;1.63;;;21.10;47.00;;;;;;4978713;28;20481;-59
2022/06/13 02:32:07;;;;;;;1.50;1.40;;;21.10;46.90;;;;;;4978756;28;20455;-59
2022/06/13 02:34:50;;;;;;;1.63;1.53;;;21.10;46.90;;;;;;4976885;28;20463;-59
2022/06/13 02:37:24;;;;;;;1.40;1.30;;;21.10;46.90;;;;;;4984141;28;20971;-59
2022/06/13 02:39:56;;;;;;;1.50;1.40;;;21.10;46.90;;;;;;4978637;28;20443;-59
2022/06/13 02:42:53;;;;;;;1.70;1.60;;;21.10;46.80;;;;;;4976323;28;20514;-56
2022/06/13 02:45:25;;;;;;;1.30;1.20;;;21.10;46.80;;;;;;4977834;28;20465;-56
2022/06/13 02:48:12;;;;;;;1.40;1.30;;;21.10;46.80;;;;;;4974678;28;20450;-56
2022/06/13 02:51:15;;;;;;;1.30;1.20;;;21.10;46.70;;;;;;4983346;28;20465;-56
2022/06/13 02:53:53;;;;;;;1.70;1.60;;;21.10;46.80;;;;;;4996685;28;20462;-56
2022/06/13 03:00:01;;;;;;;1.73;1.63;;;21.10;46.70;;;;;;4979775;28;20589;-56
2022/06/13 03:02:42;;;;;;;1.90;1.80;;;21.10;46.70;;;;;;4979807;28;20450;-57
2022/06/13 03:05:15;;;;;;;1.53;1.43;;;21.10;46.80;;;;;;4981849;28;21098;-56
2022/06/13 03:07:49;;;;;;;1.53;1.43;;;21.10;46.80;;;;;;4979595;28;20460;-56
2022/06/13 03:10:20;;;;;;;1.70;1.60;;;21.10;46.80;;;;;;4981001;28;20456;-56
2022/06/13 03:12:55;;;;;;;1.47;1.37;;;21.10;46.80;;;;;;4982099;28;20502;-56
2022/06/13 03:15:26;;;;;;;1.53;1.43;;;21.10;46.70;;;;;;4979223;28;20798;-56
2022/06/13 03:17:56;;;;;;;1.60;1.50;;;21.10;46.70;;;;;;4980748;28;20466;-56
2022/06/13 03:20:46;;;;;;;3.03;1.60;;;21.10;46.70;;;;;;4983151;28;20505;-56
2022/06/13 03:23:21;;;;;;;1.83;1.60;;;21.10;46.90;;;;;;4978267;28;20456;-56
2022/06/13 03:26:18;;;;;;;1.57;1.47;;;21.10;46.70;;;;;;4982778;28;20789;-59
2022/06/13 03:28:56;;;;;;;1.90;1.80;;;21.10;46.70;;;;;;4970099;28;20458;-57
2022/06/13 03:31:31;;;;;;;1.83;1.50;;;21.10;47.10;;;;;;4979941;28;20449;-57
2022/06/13 03:34:02;;;;;;;1.57;1.47;;;21.10;46.70;;;;;;4984156;28;20441;-56
2022/06/13 03:36:47;;;;;;;1.53;1.43;;;21.10;46.70;;;;;;4983208;28;20445;-56
2022/06/13 03:39:27;;;;;;;1.70;1.60;;;21.10;46.70;;;;;;4981943;28;20463;-57
2022/06/13 03:42:10;;;;;;;1.93;1.60;;;21.10;46.60;;;;;;4981402;28;21001;-57
2022/06/13 03:44:46;;;;;;;1.50;1.40;;;21.10;46.50;;;;;;4981343;28;20496;-57
2022/06/13 03:47:22;;;;;;;1.80;1.60;;;21.10;46.50;;;;;;4982188;28;20466;-57
2022/06/13 03:50:06;;;;;;;1.60;1.50;;;21.10;46.30;;;;;;4983735;28;20468;-57
2022/06/13 03:52:36;;;;;;;1.50;1.40;;;21.10;46.50;;;;;;4983501;28;20437;-57
2022/06/13 03:55:15;;;;;;;1.50;1.40;;;21.10;46.30;;;;;;4980525;28;20549;-57
2022/06/13 03:58:08;;;;;;;1.80;1.70;;;21.10;46.40;;;;;;4982123;28;20513;-57
2022/06/13 04:00:44;;;;;;;1.70;1.60;;;21.10;46.30;;;;;;4980362;28;21030;-57
2022/06/13 04:03:10;;;;;;;1.60;1.50;;;21.10;46.30;;;;;;4979728;28;20517;-58
2022/06/13 04:05:52;;;;;;;1.70;1.60;;;21.10;46.50;;;;;;4983723;28;20474;-58
2022/06/13 04:08:18;;;;;;;2.27;2.17;;;21.10;46.50;;;;;;4983758;28;21371;-57
2022/06/13 04:11:03;;;;;;;1.50;1.40;;;21.10;46.50;;;;;;4984413;28;20486;-57
2022/06/13 04:13:54;;;;;;;1.77;1.67;;;21.20;46.50;;;;;;4984853;28;20357;-57
2022/06/13 04:16:44;;;;;;;1.60;1.50;;;21.20;46.40;;;;;;4981431;28;20455;-58
2022/06/13 04:19:34;;;;;;;1.50;1.40;;;21.20;46.50;;;;;;4985385;28;20509;-57
2022/06/13 04:22:24;;;;;;;1.53;1.43;;;21.20;46.40;;;;;;4983094;28;20851;-57
2022/06/13 04:25:04;;;;;;;1.63;1.53;;;21.20;46.40;;;;;;4982002;28;20482;-57
2022/06/13 04:27:42;;;;;;;1.80;1.70;;;21.20;46.50;;;;;;4980521;28;20433;-57
2022/06/13 04:30:16;;;;;;;1.70;1.50;;;21.20;46.50;;;;;;4981344;28;20468;-57
2022/06/13 04:32:59;;;;;;;1.70;1.60;;;21.20;46.50;;;;;;4984022;28;20467;-57
2022/06/13 04:35:25;;;;;;;1.80;1.70;;;21.20;46.60;;;;;;4980666;28;20467;-57
2022/06/13 04:37:52;;;;;;;1.40;1.30;;;21.20;46.60;;;;;;4981637;28;20455;-57
2022/06/13 04:40:23;;;;;;;1.70;1.60;;;21.20;46.60;;;;;;4983415;28;20470;-57
2022/06/13 04:42:50;;;;;;;1.93;1.83;;;21.30;46.70;;;;;;4979326;28;20454;-57
2022/06/13 04:45:30;;;;;;;1.60;1.50;;;21.20;46.60;;;;;;4995995;28;20781;-58
2022/06/13 04:47:57;;;;;;;1.60;1.50;;;21.20;46.60;;;;;;4981898;28;20416;-57
2022/06/13 04:50:39;;;;;;;2.47;2.10;;;21.30;46.70;;;;;;4984869;28;20454;-57
2022/06/13 04:53:10;;;;;;;1.83;1.73;;;21.30;46.80;;;;;;4982302;28;20574;-57
2022/06/13 04:55:42;;;;;;;1.53;1.43;;;21.20;46.70;;;;;;4980312;28;20439;-57
2022/06/13 04:58:28;;;;;;;1.70;1.60;;;21.30;46.90;;;;;;4987261;28;20421;-57
2022/06/13 05:01:03;;;;;;;2.07;1.97;;;21.20;46.80;;;;;;4982150;28;20466;-57
2022/06/13 05:03:35;;;;;;;1.80;1.70;;;21.20;46.80;;;;;;4983458;28;20461;-57
2022/06/13 05:06:05;;;;;;;1.70;1.60;;;21.20;46.90;;;;;;4981657;28;20455;-57
2022/06/13 05:08:36;;;;;;;1.70;1.60;;;21.20;47.00;;;;;;4981465;28;20447;-57
2022/06/13 05:11:14;;;;;;;2.00;1.83;;;21.30;47.00;;;;;;4977757;28;20477;-57
2022/06/13 05:13:40;;;;;;;1.80;1.67;;;21.30;47.10;;;;;;4980134;28;20471;-57
2022/06/13 05:16:20;;;;;;;2.20;2.00;;;21.20;47.10;;;;;;4979354;28;20462;-57
2022/06/13 05:19:24;;;;;;;2.03;1.80;;;21.30;47.20;;;;;;4979181;28;20500;-57
2022/06/13 05:22:15;;;;;;;1.70;1.60;;;21.30;47.20;;;;;;4981693;28;20457;-57
2022/06/13 05:25:38;;;;;;;2.03;1.93;;;21.20;47.20;;;;;;4997110;28;20474;-56
2022/06/13 05:28:03;;;;;;;2.20;1.70;;;21.20;47.30;;;;;;4954871;28;20463;-56
2022/06/13 05:30:29;;;;;;;1.90;1.80;;;21.20;47.30;;;;;;4956978;28;20431;-57
2022/06/13 05:32:56;;;;;;;1.43;1.33;;;21.20;47.30;;;;;;4969513;28;20292;-56
2022/06/13 05:35:29;;;;;;;1.87;1.77;;;21.20;47.40;;;;;;4982017;28;20312;-57
2022/06/13 05:37:58;;;;;;;2.90;2.10;;;21.20;47.40;;;;;;4982069;28;20786;-57
2022/06/13 05:40:24;;;;;;;2.00;1.90;;;21.20;47.40;;;;;;4984454;28;20455;-58
2022/06/13 05:42:50;;;;;;;2.30;2.20;;;21.30;47.50;;;;;;4980605;28;20794;-56
2022/06/13 05:45:19;;;;;;;1.80;1.70;;;21.20;47.40;;;;;;4983557;28;20263;-56
2022/06/13 05:47:48;;;;;;;2.53;2.33;;;21.20;47.40;;;;;;4982841;28;20513;-56
2022/06/13 05:50:22;;;;;;;2.03;1.90;;;21.30;47.60;;;;;;4978614;28;20455;-56
2022/06/13 05:52:48;;;;;;;1.87;1.77;;;21.30;47.60;;;;;;4979046;28;20521;-56
2022/06/13 05:55:14;;;;;;;1.87;1.77;;;21.30;47.60;;;;;;4981123;28;20463;-56
2022/06/13 05:57:40;;;;;;;2.10;1.90;;;21.30;47.60;;;;;;4984231;28;20453;-56
2022/06/13 06:00:14;;;;;;;2.10;2.00;;;21.30;47.60;;;;;;4981370;28;20303;-56
2022/06/13 06:02:40;;;;;;;1.90;1.80;;;21.20;47.60;;;;;;4981149;28;20223;-56
2022/06/13 06:05:06;;;;;;;1.70;1.60;;;21.30;47.60;;;;;;4979563;28;20444;-56
2022/06/13 06:07:32;;;;;;;1.87;1.77;;;21.30;47.60;;;;;;4997516;28;20985;-56
2022/06/13 06:09:59;;;;;;;2.10;2.00;;;21.30;47.70;;;;;;4980373;28;20224;-57
2022/06/13 06:12:25;;;;;;;3.67;1.60;;;21.30;47.70;;;;;;4998973;28;20852;-56
2022/06/13 06:14:50;;;;;;;2.97;2.17;;;21.30;47.70;;;;;;4980301;28;20454;-57
2022/06/13 06:17:16;;;;;;;1.80;1.70;;;21.20;47.60;;;;;;4980683;28;20223;-56
2022/06/13 06:19:41;;;;;;;2.47;1.67;;;21.30;47.70;;;;;;4979916;28;20240;-56
2022/06/13 06:22:07;;;;;;;1.77;1.67;;;21.30;47.70;;;;;;4994979;28;20663;-57
2022/06/13 06:24:32;;;;;;;2.20;2.10;;;21.30;47.70;;;;;;4977560;28;20229;-57
2022/06/13 06:26:59;;;;;;;2.17;1.80;;;21.30;47.70;;;;;;4980495;28;20324;-57
2022/06/13 06:29:24;;;;;;;1.93;1.83;;;21.30;47.80;;;;;;4982070;28;20229;-56
2022/06/13 06:31:50;;;;;;;1.80;1.70;;;21.30;47.70;;;;;;4980171;28;21022;-56
2022/06/13 06:34:17;;;;;;;1.90;1.80;;;21.30;47.80;;;;;;4992550;28;20656;-57
2022/06/13 06:36:43;;;;;;;2.23;2.00;;;21.30;47.80;;;;;;4973432;28;20319;-56
2022/06/13 06:39:09;;;;;;;1.80;1.70;;;21.30;47.80;;;;;;4994621;28;20530;-57
2022/06/13 06:41:34;;;;;;;2.53;2.00;;;21.20;47.70;;;;;;4979012;28;20256;-56
2022/06/13 06:44:00;;;;;;;2.00;1.90;;;21.30;47.80;;;;;;4980032;28;20240;-56
2022/06/13 06:46:26;;;;;;;1.70;1.60;;;21.30;47.80;;;;;;4978555;28;20225;-56
2022/06/13 06:48:51;;;;;;;1.70;1.60;;;21.30;47.80;;;;;;4997555;28;20677;-57
2022/06/13 06:51:18;;;;;;;1.90;1.80;;;21.20;47.70;;;;;;4979017;28;20745;-56
2022/06/13 07:01:58;;;;;;;2.20;2.00;;;21.20;47.80;;;;;;4985903;28;20943;-57
2022/06/13 07:04:24;;;;;;;2.43;1.93;;;21.20;47.70;;;;;;4984283;28;20470;-57
2022/06/13 07:06:49;;;;;;;1.47;1.37;;;21.30;47.90;;;;;;4986949;28;20459;-57
2022/06/13 07:09:15;;;;;;;2.50;2.30;;;21.30;47.90;;;;;;4983982;28;20229;-57
2022/06/13 07:11:56;;;;;;;1.77;1.67;;;21.30;47.80;;;;;;4999760;28;20221;-57
2022/06/13 07:14:27;;;;;;;1.80;1.70;;;21.30;47.80;;;;;;4983836;28;20715;-57
2022/06/13 07:16:53;;;;;;;2.10;2.00;;;21.30;47.80;;;;;;4983781;28;20450;-57
2022/06/13 07:19:19;;;;;;;1.60;1.50;;;21.20;47.80;;;;;;4987671;28;20454;-57
2022/06/13 07:21:45;;;;;;;2.50;2.30;;;21.30;47.80;;;;;;4981426;28;20923;-58
2022/06/13 07:24:10;;;;;;;2.47;2.27;;;21.30;47.90;;;;;;4984399;28;20458;-57
2022/06/13 07:26:38;;;;;;;1.90;1.70;;;21.30;47.80;;;;;;4979918;28;20242;-57
2022/06/13 07:29:04;;;;;;;1.73;1.63;;;21.30;47.80;;;;;;4983559;28;20224;-57
2022/06/13 07:31:45;;;;;;;2.07;1.90;;;21.30;47.80;;;;;;4983639;28;20472;-57
2022/06/13 07:34:17;;;;;;;1.97;1.87;;;21.30;47.80;;;;;;4995752;28;20470;-57
2022/06/13 07:36:44;;;;;;;2.07;1.97;;;21.30;47.80;;;;;;4982909;28;20486;-57
2022/06/13 07:39:10;;;;;;;2.33;2.07;;;21.30;47.80;;;;;;4982498;28;20455;-57
2022/06/13 07:41:38;;;;;;;1.80;1.70;;;21.30;47.80;;;;;;4982302;28;20813;-57
2022/06/13 07:44:05;;;;;;;1.83;1.73;;;21.30;47.80;;;;;;4978646;28;20613;-57
2022/06/13 07:46:32;;;;;;;2.43;2.23;;;21.30;47.80;;;;;;4981761;28;20537;-57
2022/06/13 07:48:58;;;;;;;2.00;1.70;;;21.30;47.80;;;;;;4982647;28;20822;-57
2022/06/13 07:51:26;;;;;;;2.03;1.93;;;21.20;47.70;;;;;;4981141;28;20983;-57
2022/06/13 07:53:53;;;;;;;2.13;2.03;;;21.30;47.80;;;;;;4997953;28;20589;-57
2022/06/13 07:56:22;;;;;;;1.90;1.80;;;21.30;47.80;;;;;;4982305;28;20473;-58
2022/06/13 07:58:50;;;;;;;2.13;2.03;;;21.30;47.80;;;;;;4983442;28;20452;-57
2022/06/13 08:01:17;;;;;;;2.10;2.00;;;21.20;47.70;;;;;;4983092;28;20455;-57
2022/06/13 08:03:43;;;;;;;2.50;2.30;;;21.30;47.80;;;;;;4978463;28;20516;-57
2022/06/13 08:06:10;;;;;;;2.00;1.90;;;21.30;47.80;;;;;;4982594;28;20463;-57
2022/06/13 08:08:36;;;;;;;3.20;2.73;;;21.30;47.80;;;;;;4981400;28;20232;-57
2022/06/13 08:11:06;;;;;;;2.20;2.00;;;21.30;47.80;;;;;;4982083;28;20451;-57
2022/06/13 08:13:33;;;;;;;2.77;2.10;;;21.30;47.90;;;;;;4980625;28;20881;-57
2022/06/13 08:15:58;;;;;;;2.63;2.00;;;21.20;47.70;;;;;;4980659;28;20456;-58
2022/06/13 08:18:24;;;;;;;2.30;2.10;;;21.30;47.80;;;;;;4979489;28;20455;-57
2022/06/13 08:20:50;;;;;;;2.20;2.10;;;21.30;47.80;;;;;;4980702;28;20220;-57
2022/06/13 08:23:19;;;;;;;1.93;1.83;;;21.20;47.70;;;;;;4983954;28;20454;-57
2022/06/13 08:25:45;;;;;;;1.87;1.77;;;21.20;47.70;;;;;;5000254;28;20467;-57
2022/06/13 08:28:13;;;;;;;2.67;1.90;;;21.20;47.70;;;;;;4986212;28;20450;-57
2022/06/13 08:30:48;;;;;;;2.23;2.13;;;21.20;47.70;;;;;;4981017;28;20462;-57
2022/06/13 08:33:14;;;;;;;2.20;2.10;;;21.20;47.70;;;;;;4983841;28;20462;-57
2022/06/13 08:35:40;;;;;;;2.97;2.77;;;21.20;47.70;;;;;;4981629;28;20845;-57
2022/06/13 08:38:06;;;;;;;2.20;2.10;;;21.20;47.70;;;;;;4981044;28;20304;-56
2022/06/13 08:40:42;;;;;;;2.50;2.30;;;21.20;47.60;;;;;;4981986;28;20593;-57
2022/06/13 08:43:29;;;;;;;2.70;2.50;;;21.20;47.60;;;;;;4979901;28;20478;-56
2022/06/13 08:46:17;;;;;;;2.07;1.97;;;21.20;47.60;;;;;;4981152;28;20454;-56
2022/06/13 08:48:47;;;;;;;2.30;2.20;;;21.20;47.60;;;;;;4983377;28;20454;-56
2022/06/13 08:51:20;;;;;;;3.27;2.17;;;21.20;47.60;;;;;;4977155;28;21003;-57
2022/06/13 08:53:57;;;;;;;2.60;2.27;;;21.20;47.60;;;;;;4983920;28;20459;-57
2022/06/13 08:56:27;;;;;;;2.13;2.03;;;21.20;47.60;;;;;;4982538;28;20446;-56
2022/06/13 08:59:22;;;;;;;2.57;2.43;;;21.20;47.60;;;;;;4981241;28;20955;-56
2022/06/13 09:01:51;;;;;;;2.70;2.50;;;21.20;47.60;;;;;;4981135;28;20546;-56
2022/06/13 09:04:58;;;;;;;2.50;2.40;;;21.20;47.60;;;;;;4978781;28;20983;-57
2022/06/13 09:07:33;;;;;;;2.93;2.60;;;21.20;47.60;;;;;;4980695;28;20458;-57
2022/06/13 09:10:11;;;;;;;2.40;2.20;;;21.20;47.60;;;;;;4981339;28;20458;-57
2022/06/13 09:12:55;;;;;;;2.50;2.30;;;21.20;47.70;;;;;;4981348;28;20462;-56
2022/06/13 09:15:28;;;;;;;2.73;2.10;;;21.20;47.70;;;;;;4980727;28;20471;-56
2022/06/13 09:18:14;;;;;;;2.50;2.30;;;21.20;47.70;;;;;;4981940;28;20446;-56
2022/06/13 09:21:02;;;;;;;2.93;2.10;;;21.20;47.70;;;;;;4981038;28;20441;-56
2022/06/13 09:23:43;;;;;;;2.47;2.27;;;21.20;47.70;;;;;;4980548;28;20458;-56
2022/06/13 09:26:18;;;;;;;2.30;2.20;;;21.20;47.70;;;;;;4984254;28;20505;-56
2022/06/13 09:28:59;;;;;;;2.80;2.60;;;21.20;47.70;;;;;;4982374;28;20447;-56
2022/06/13 09:31:40;;;;;;;2.00;1.90;;;21.20;47.70;;;;;;4976338;28;20824;-57
2022/06/13 09:34:11;;;;;;;2.57;2.47;;;21.20;47.70;;;;;;4979630;28;21239;-57
2022/06/13 09:36:49;;;;;;;2.37;2.17;;;21.20;47.70;;;;;;4975338;28;20828;-56
2022/06/13 09:39:18;;;;;;;3.43;2.80;;;21.20;47.70;;;;;;4977642;28;20813;-56
2022/06/13 09:42:20;;;;;;;2.60;2.37;;;21.20;47.70;;;;;;4978390;28;20446;-56
2022/06/13 09:45:10;;;;;;;2.73;2.50;;;21.20;47.70;;;;;;4982974;28;20441;-56
2022/06/13 09:47:39;;;;;;;2.73;2.53;;;21.20;47.80;;;;;;4983161;28;20440;-56
2022/06/13 09:50:07;;;;;;;2.87;2.67;;;21.20;47.70;;;;;;4982859;28;20463;-56
2022/06/13 09:52:35;;;;;;;2.30;2.10;;;21.20;47.70;;;;;;4998635;28;20982;-57
2022/06/13 09:55:10;;;;;;;2.70;2.50;;;21.20;47.70;;;;;;4984614;28;20445;-56
2022/06/13 09:58:02;;;;;;;2.43;2.33;;;21.20;47.70;;;;;;4979885;28;20450;-56
2022/06/13 10:00:27;;;;;;;2.27;2.17;;;21.20;47.70;;;;;;4981917;28;20465;-56
2022/06/13 10:03:00;;;;;;;2.87;2.67;;;21.20;47.80;;;;;;4981035;28;20475;-56
2022/06/13 10:05:42;;;;;;;2.10;2.00;;;21.20;47.80;;;;;;4981004;28;20213;-57
2022/06/13 10:08:26;;;;;;;1.83;1.73;;;21.20;47.70;;;;;;4981281;28;20461;-56
2022/06/13 10:11:05;;;;;;;2.70;2.50;;;21.20;47.70;;;;;;4979709;28;20447;-57
2022/06/13 10:13:56;;;;;;;2.60;2.40;;;21.20;47.70;;;;;;4981538;28;20930;-57
2022/06/13 10:16:34;;;;;;;2.50;2.30;;;21.20;47.80;;;;;;4978739;28;20458;-56
2022/06/13 10:19:29;;;;;;;2.67;2.43;;;21.20;47.70;;;;;;4979586;28;20428;-56
2022/06/13 10:22:14;;;;;;;4.90;1.93;;;21.20;47.70;;;;;;4980205;28;20501;-57
2022/06/13 10:25:06;;;;;;;2.50;2.30;;;21.20;47.70;;;;;;4977751;28;20491;-56
2022/06/13 10:28:29;;;;;;;2.40;2.23;;;21.20;47.70;;;;;;4977690;28;20459;-56
2022/06/13 10:31:16;;;;;;;2.70;2.50;;;21.20;47.70;;;;;;4957157;28;20427;-57
2022/06/13 10:34:21;;;;;;;2.70;2.60;;;21.20;47.60;;;;;;4961430;28;20479;-56
2022/06/13 10:37:05;;;;;;;2.20;2.10;;;21.20;47.60;;;;;;4979501;28;20434;-56
2022/06/13 10:39:31;;;;;;;2.40;2.30;;;21.20;47.60;;;;;;4987764;28;20454;-57
2022/06/13 10:42:08;;;;;;;2.30;2.10;;;21.20;47.50;;;;;;4983597;28;20875;-57
2022/06/13 10:44:34;;;;;;;2.70;2.50;;;21.20;47.50;;;;;;4979468;28;20458;-56
2022/06/13 10:47:37;;;;;;;2.50;2.33;;;21.20;47.50;;;;;;4986127;28;20816;-56
2022/06/13 10:50:17;;;;;;;2.30;2.10;;;21.20;47.30;;;;;;4982183;28;20465;-56
2022/06/13 10:52:47;;;;;;;2.70;2.50;;;21.20;47.30;;;;;;4982187;28;20907;-56
2022/06/13 10:55:19;;;;;;;2.40;2.20;;;21.20;47.30;;;;;;4982395;28;20494;-56
2022/06/13 10:57:49;;;;;;;2.10;2.00;;;21.20;47.20;;;;;;4984679;28;21990;-56
2022/06/13 11:00:24;;;;;;;2.33;2.23;;;21.20;47.20;;;;;;4983265;28;20453;-56
2022/06/13 11:02:51;;;;;;;2.63;2.53;;;21.20;47.20;;;;;;4977254;28;20858;-57
2022/06/13 11:05:25;;;;;;;2.70;2.50;;;21.10;47.20;;;;;;4982654;28;20869;-56
2022/06/13 11:07:51;;;;;;;2.33;2.23;;;21.20;47.30;;;;;;4981783;28;20564;-56
2022/06/13 11:10:38;;;;;;;2.60;2.40;;;21.20;47.30;;;;;;4989480;28;20536;-56
2022/06/13 11:13:13;;;;;;;3.50;2.77;;;21.20;47.30;;;;;;4989128;28;20323;-56
2022/06/13 11:24:45;;;;;;;2.33;2.23;;;21.10;47.30;;;;;;4984434;28;20539;-57
2022/06/13 11:30:28;;;;;;;2.53;2.43;;;21.10;47.30;;;;;;4983548;28;20481;-57
2022/06/13 11:33:19;;;;;;;2.77;2.60;;;21.20;47.50;;;;;;4985226;28;20458;-59
2022/06/13 11:35:54;;;;;;;2.90;2.70;;;21.20;47.50;;;;;;4985854;28;20473;-58
2022/06/13 11:38:35;;;;;;;3.00;2.33;;;21.10;47.40;;;;;;4985959;28;20492;-58
2022/06/13 11:41:03;;;;;;;2.90;2.70;;;21.20;47.50;;;;;;4983185;28;20457;-57
2022/06/13 11:43:46;;;;;;;2.47;2.27;;;21.10;47.50;;;;;;4983231;28;20486;-57
2022/06/13 11:46:27;;;;;;;3.00;2.80;;;21.10;47.50;;;;;;4984026;28;21330;-57
2022/06/13 11:49:02;;;;;;;2.70;2.50;;;21.20;47.50;;;;;;4982792;28;20854;-62
2022/06/13 11:51:39;;;;;;;3.20;2.50;;;21.20;47.60;;;;;;4984028;28;20460;-57
2022/06/13 11:54:05;;;;;;;2.67;2.47;;;21.10;47.50;;;;;;4983141;28;20469;-57
2022/06/13 11:56:33;;;;;;;2.50;2.40;;;21.20;47.60;;;;;;4984381;28;20467;-57
2022/06/13 11:59:04;;;;;;;2.43;2.23;;;21.10;47.60;;;;;;4984418;28;20466;-57
2022/06/13 12:01:31;;;;;;;2.53;2.43;;;21.20;47.70;;;;;;4980980;28;20473;-58
2022/06/13 12:04:11;;;;;;;2.47;2.37;;;21.10;47.60;;;;;;4985404;28;20549;-56
2022/06/13 12:06:43;;;;;;;2.30;2.20;;;21.10;47.60;;;;;;4985245;28;20786;-56
2022/06/13 12:09:31;;;;;;;3.20;3.00;;;21.10;47.70;;;;;;4984830;28;20447;-56
2022/06/13 12:12:00;;;;;;;2.57;2.37;;;21.10;47.60;;;;;;4981881;28;20513;-57
2022/06/13 12:14:28;;;;;;;2.50;2.40;;;21.10;47.70;;;;;;4981810;28;20555;-56
2022/06/13 12:17:07;;;;;;;2.40;2.30;;;21.10;47.70;;;;;;4985011;28;20531;-58
2022/06/13 12:20:12;;;;;;;2.33;2.23;;;21.20;47.70;;;;;;4986253;28;20963;-56
2022/06/13 12:22:40;;;;;;;2.20;2.10;;;21.10;48.50;;;;;;4982107;28;20455;-56
2022/06/13 12:25:17;;;;;;;2.00;1.90;;;21.10;47.70;;;;;;4982663;28;20532;-56
2022/06/13 12:28:03;;;;;;;2.20;2.10;;;21.10;47.70;;;;;;4979158;28;20486;-55
2022/06/13 12:30:58;;;;;;;3.53;2.47;;;21.10;47.70;;;;;;4986983;28;20466;-56
2022/06/13 12:33:41;;;;;;;2.50;2.40;;;21.10;47.70;;;;;;4983007;28;20821;-57
2022/06/13 12:36:55;;;;;;;2.20;2.10;;;21.10;47.70;;;;;;4981708;28;20979;-56
2022/06/13 12:39:36;;;;;;;2.30;2.20;;;21.10;47.80;;;;;;4953828;28;20457;-56
2022/06/13 12:42:26;;;;;;;2.00;1.90;;;21.10;47.70;;;;;;4982940;28;20459;-56
2022/06/13 12:45:29;;;;;;;2.50;2.40;;;21.10;47.70;;;;;;4985397;28;20474;-57
2022/06/13 12:48:15;;;;;;;2.10;2.00;;;21.10;47.70;;;;;;4982997;28;20454;-56
2022/06/13 12:50:55;;;;;;;2.30;2.20;;;21.10;47.70;;;;;;4996491;28;21042;-56
2022/06/13 12:53:40;;;;;;;2.17;2.07;;;21.10;47.70;;;;;;4981826;28;20957;-58
2022/06/13 12:56:24;;;;;;;2.40;2.30;;;21.10;47.70;;;;;;4983116;28;20458;-56
2022/06/13 12:59:14;;;;;;;2.43;2.23;;;21.10;47.60;;;;;;4984132;28;20518;-56
2022/06/13 13:02:18;;;;;;;2.30;2.20;;;21.10;47.70;;;;;;4979880;28;20681;-56
2022/06/13 13:05:29;;;;;;;2.53;2.33;;;21.10;47.70;;;;;;4980567;28;20651;-56
2022/06/13 13:08:17;;;;;;;2.10;2.00;;;21.10;47.70;;;;;;4982176;28;20446;-57
2022/06/13 13:11:12;;;;;;;2.60;2.50;;;21.10;47.70;;;;;;4980355;28;20877;-56
2022/06/13 13:13:44;;;;;;;2.20;2.10;;;21.10;47.70;;;;;;4964090;28;20995;-56
2022/06/13 13:16:24;;;;;;;2.23;2.10;;;21.10;47.70;;;;;;4984274;28;20472;-56
2022/06/13 13:18:59;;;;;;;2.13;2.03;;;21.10;47.70;;;;;;4978931;28;20458;-56
2022/06/13 13:21:42;;;;;;;2.00;1.90;;;21.10;47.80;;;;;;4980774;28;20432;-58
2022/06/13 13:24:14;;;;;;;2.40;2.30;;;21.10;47.70;;;;;;4982719;28;20490;-56
2022/06/13 13:26:58;;;;;;;1.90;1.80;;;21.10;47.80;;;;;;4984317;28;20489;-56
2022/06/13 13:30:02;;;;;;;2.03;1.93;;;21.10;48.40;;;;;;4982625;28;20904;-58
2022/06/13 13:32:55;;;;;;;2.10;2.00;;;21.10;47.70;;;;;;4977743;28;20933;-56
2022/06/13 13:35:46;;;;;;;2.20;2.10;;;21.10;47.70;;;;;;4980472;28;20463;-57
2022/06/13 13:38:29;;;;;;;2.20;2.10;;;21.10;47.70;;;;;;4978991;28;20428;-57
2022/06/13 13:41:01;;;;;;;2.10;2.00;;;21.10;47.80;;;;;;4985044;28;20449;-56
2022/06/13 13:43:38;;;;;;;2.63;2.43;;;21.10;47.70;;;;;;4980089;28;20454;-58
2022/06/13 13:46:18;;;;;;;2.40;2.30;;;21.10;47.80;;;;;;4980084;28;20515;-57
2022/06/13 13:48:50;;;;;;;2.63;2.43;;;21.10;47.70;;;;;;4980332;28;20467;-57
2022/06/13 13:51:34;;;;;;;2.17;2.07;;;21.10;47.80;;;;;;4982591;28;20537;-57
2022/06/13 13:54:45;;;;;;;2.40;2.23;;;21.10;47.70;;;;;;4983010;28;20459;-57
2022/06/13 13:57:17;;;;;;;2.23;2.03;;;21.10;47.70;;;;;;4979481;28;20451;-57
2022/06/13 13:59:46;;;;;;;2.10;2.00;;;21.10;47.80;;;;;;4982715;28;20518;-57
2022/06/13 14:02:35;;;;;;;2.70;2.50;;;21.10;47.80;;;;;;4981586;28;20722;-57